Escondido, CA (92025)

3:36 AM PDT on March 26, 2017 (GMT -0700)
KCAESCON21 | | Change Station

Elev 646 ft 33.09 °N, 117.08 °W | Updated 6 minutes ago

Partly Cloudy
Partly Cloudy
52.8 °F
Feels Like 52.8 °F
N
0.0
Wind Variable Wind from SW
Gusts 0.0 mph

Today
High -- | Low -- °F
--% Chance of Precip.
Yesterday
High -- | Low -- °F
Precip. -- in
Pressure 30.02 in
Visibility 0.2 miles
Clouds
Dew Point 51 °F
Humidity 94%
Rainfall 0.00 in
Snow Depth Not available.
6:43 AM 7:04 PM
Waning Crescent, 4% visible
SPECI KRNM 261023Z AUTO 00000KT 1/4SM FG VV002 08/08 A3002 RMK AO2 T00830083 $
Pressure 30.02 in
Visibility 0.2 miles
Clouds
Dew Point 51 °F
Humidity 94%
Rainfall 0.00 in
Snow Depth Not available.
6:43 AM 7:04 PM
Waning Crescent, 4% visible
SPECI KRNM 261023Z AUTO 00000KT 1/4SM FG VV002 08/08 A3002 RMK AO2 T00830083 $

Get Severe Weather Alerts

Thanks for signing up!

Be on the lookout for a verification email in your inbox.

You'll start receiving the daily forecast at 8 AM.

×

10-Day Weather Forecast

Almanac

Astronomy

Mar. 26, 2017 Rise Set
Actual Time
Civil Twilight
Nautical Twilight
Astronomical Twilight
Moon
Length of Visible Light
Length of Day
Tomorrow will be .
, % of the Moon is Illuminated

Today's Extremes

State Highs State Lows

Community

WunderPhotos

Upload Photos

1,962,540 photos uploaded!

WunderBlog® & News

Nearby

Air Quality

  Air Quality AQ Index Pollutant
Not available.

Snow Depth

Station Depth Elevation

Earthquake Activity

City Distance Mag. Time & Date
Minimum magnitude displayed is 2.5.

Earthquake Activity

City Distance Mag. Time & Date
Minimum magnitude displayed is 2.5.

Coastal Water Temperatures

Place Temperature

Stations

Nearby Weather Stations

Station Location Temp. Windchill Dew Point Humidity Wind Precip. Elev Updated Type
                   

Watches & Warnings

There are currently no watches in effect.